Time;durP1;ratioP1;P1;durP2;ratioP2;P2;SDS_P1;SDS_P2;PMS_P1;PMS_P2;Temp;Humidity;BMP_temperature;BMP_pressure;BME280_temperature;BME280_humidity;BME280_pressure;Samples;Min_cycle;Max_cycle;Signal;HPM_P1;HPM_P2
2022/08/13 00:03:02;;;;;;;1999.90;999.90;;;;;;;18.40;47.46;99183.56;9997632;23;20038;-76
2022/08/13 00:07:15;;;;;;;1999.90;999.90;;;;;;;18.37;47.28;99180.22;10002250;23;20027;-77
2022/08/13 00:12:56;;;;;;;1999.90;999.90;;;;;;;18.40;46.81;99185.34;10003991;23;20035;-76
2022/08/13 00:16:01;;;;;;;1999.90;999.90;;;;;;;18.41;47.08;99187.91;10023271;23;20090;-76
2022/08/13 00:20:04;;;;;;;1999.90;999.90;;;;;;;18.34;46.88;99186.47;10003269;23;20022;-76
2022/08/13 00:24:06;;;;;;;1999.90;999.90;;;;;;;18.26;46.75;99188.50;10027860;23;20050;-77
2022/08/13 00:28:28;;;;;;;1999.90;999.90;;;;;;;18.27;46.64;99189.38;10027923;23;20446;-76
2022/08/13 00:32:30;;;;;;;;;;;;;;;18.28;47.40;99191.06;10023903;23;20026;-76
2022/08/13 00:36:34;;;;;;;1999.90;999.90;;;;;;;18.26;45.80;99187.66;10027542;23;19925;-76
2022/08/13 00:40:46;;;;;;;1999.90;999.90;;;;;;;18.20;47.17;99186.13;9979288;23;20019;-76
2022/08/13 00:44:58;;;;;;;1999.90;999.90;;;;;;;18.15;47.91;99182.84;9981739;23;20374;-77
2022/08/13 00:49:03;;;;;;;1999.90;999.90;;;;;;;18.11;47.66;99186.47;10022741;23;20430;-77
2022/08/13 00:53:06;;;;;;;1999.90;999.90;;;;;;;18.02;48.04;99192.94;10027401;23;20022;-76
2022/08/13 00:57:10;;;;;;;1999.90;999.90;;;;;;;17.97;48.06;99184.38;10003991;23;20437;-76
2022/08/13 01:01:23;;;;;;;1999.90;999.90;;;;;;;17.93;48.04;99181.91;10002848;23;20023;-77
2022/08/13 01:05:37;;;;;;;1999.90;999.90;;;;;;;17.75;47.86;99192.19;10003843;23;20497;-77
2022/08/13 01:09:43;;;;;;;1999.90;999.90;;;;;;;17.73;48.24;99188.75;10003805;23;20030;-77
2022/08/13 01:14:07;;;;;;;1999.90;999.90;;;;;;;17.72;48.23;99192.31;10002411;23;20027;-76
2022/08/13 01:18:13;;;;;;;1999.90;999.90;;;;;;;17.74;47.89;99200.97;10022856;23;20037;-76
2022/08/13 01:22:16;;;;;;;1999.90;999.90;;;;;;;17.68;48.42;99184.59;10043804;23;20048;-76
2022/08/13 01:26:34;;;;;;;1999.90;999.90;;;;;;;17.56;48.78;99196.38;10028256;23;20361;-76
2022/08/13 01:30:46;;;;;;;1999.90;999.90;;;;;;;17.46;50.44;99200.25;9999413;23;20023;-77
2022/08/13 01:34:50;;;;;;;1999.90;999.90;;;;;;;17.36;49.80;99199.69;10002646;23;20023;-76
2022/08/13 01:38:52;;;;;;;1999.90;999.90;;;;;;;17.25;50.61;99198.38;10028137;23;20027;-77
2022/08/13 01:42:55;;;;;;;1999.90;999.90;;;;;;;17.13;50.75;99194.41;10003071;23;20489;-77
2022/08/13 01:51:21;;;;;;;1999.90;999.90;;;;;;;16.85;52.03;99202.31;10028088;23;20046;-76
2022/08/13 01:55:24;;;;;;;1999.90;999.90;;;;;;;16.75;52.81;99214.03;10027779;23;20033;-77
2022/08/13 01:59:46;;;;;;;1999.90;999.90;;;;;;;16.52;52.57;99212.97;10001418;23;20122;-76
2022/08/13 02:04:06;;;;;;;1999.90;999.90;;;;;;;16.42;54.19;99210.69;10006907;23;20041;-76
2022/08/13 02:08:12;;;;;;;1999.90;999.90;;;;;;;16.33;54.89;99204.78;10050185;23;20114;-77
2022/08/13 02:12:19;;;;;;;1999.90;999.90;;;;;;;16.25;55.55;99205.94;10032197;23;20018;-77
2022/08/13 02:16:37;;;;;;;1999.90;999.90;;;;;;;16.16;55.38;99201.84;10003612;23;20031;-77
2022/08/13 02:20:39;;;;;;;1999.90;999.90;;;;;;;16.09;55.20;99207.31;10007933;23;20018;-77
2022/08/13 02:24:49;;;;;;;1999.90;999.90;;;;;;;16.00;55.07;99206.69;10033793;23;20030;-76
2022/08/13 02:28:52;;;;;;;1999.90;999.90;;;;;;;15.85;55.52;99204.50;10033531;23;20023;-76
2022/08/13 02:32:55;;;;;;;1999.90;999.90;;;;;;;15.74;56.22;99214.41;9979206;23;20061;-76
2022/08/13 02:36:58;;;;;;;1999.90;999.90;;;;;;;15.66;56.49;99211.19;10009284;23;20453;-76
2022/08/13 02:41:38;;;;;;;1999.90;999.90;;;;;;;15.62;57.56;99212.16;10011870;23;20065;-77
2022/08/13 02:45:53;;;;;;;;;;;;;;;15.54;58.03;99216.69;10029451;23;20034;-77
2022/08/13 02:49:59;;;;;;;1999.90;999.90;;;;;;;15.45;57.93;99209.13;10031137;23;19921;-77
2022/08/13 02:54:01;;;;;;;1999.90;999.90;;;;;;;15.37;58.20;99204.94;10008551;23;20033;-76
2022/08/13 02:58:03;;;;;;;;;;;;;;;15.30;58.66;99206.00;9986021;23;20023;-77
2022/08/13 03:02:05;;;;;;;1999.90;999.90;;;;;;;15.22;59.07;99207.94;10003256;23;19926;-76
2022/08/13 03:06:08;;;;;;;1999.90;999.90;;;;;;;15.18;59.13;99201.09;10004432;23;20026;-76
2022/08/13 03:10:14;;;;;;;1999.90;999.90;;;;;;;15.09;59.40;99206.56;10003384;23;20042;-77
2022/08/13 03:14:19;;;;;;;1999.90;999.90;;;;;;;15.03;59.49;99218.03;10027557;23;20034;-76
2022/08/13 03:18:22;;;;;;;1999.90;999.90;;;;;;;14.96;59.71;99220.84;9998589;23;20706;-77
2022/08/13 03:22:26;;;;;;;1999.90;999.90;;;;;;;14.90;60.11;99216.63;10027468;23;20019;-77
2022/08/13 03:26:28;;;;;;;1999.90;999.90;;;;;;;14.80;60.48;99220.34;10005546;23;20035;-77
2022/08/13 03:30:34;;;;;;;1999.90;999.90;;;;;;;14.71;61.05;99218.81;10026407;23;20062;-76
2022/08/13 03:34:36;;;;;;;1999.90;999.90;;;;;;;14.64;61.33;99224.22;10045616;23;20033;-76
2022/08/13 03:38:38;;;;;;;1999.90;999.90;;;;;;;14.58;62.11;99225.25;9982289;23;20026;-77
2022/08/13 03:42:43;;;;;;;1999.90;999.90;;;;;;;14.51;61.83;99229.72;10031196;23;20030;-77
2022/08/13 03:46:54;;;;;;;1999.90;999.90;;;;;;;14.45;62.25;99232.50;10027157;23;20093;-76
2022/08/13 03:50:59;;;;;;;1999.90;999.90;;;;;;;14.36;62.58;99240.53;10029212;23;20050;-76
2022/08/13 03:55:13;;;;;;;1999.90;999.90;;;;;;;14.31;62.77;99233.66;10006241;23;20069;-76
2022/08/13 03:59:15;;;;;;;1999.90;999.90;;;;;;;14.21;63.58;99238.25;10005313;23;20030;-77
2022/08/13 04:03:20;;;;;;;1999.90;999.90;;;;;;;14.11;63.63;99239.31;10029558;23;20050;-76
2022/08/13 04:07:21;;;;;;;1999.90;999.90;;;;;;;14.01;63.59;99236.06;9979221;23;20019;-76
2022/08/13 04:11:28;;;;;;;1999.90;999.90;;;;;;;13.93;63.98;99240.56;10030357;23;20054;-76
2022/08/13 04:15:31;;;;;;;1999.90;999.90;;;;;;;13.86;64.51;99233.75;10005078;23;20389;-76
2022/08/13 04:19:44;;;;;;;1999.90;999.90;;;;;;;13.83;64.30;99231.22;10030338;23;20023;-76
2022/08/13 04:23:50;;;;;;;1999.90;999.90;;;;;;;13.79;64.53;99238.22;10006256;23;20026;-76
2022/08/13 04:27:58;;;;;;;1999.90;999.90;;;;;;;13.72;64.34;99243.59;10004646;23;20725;-76
2022/08/13 04:32:05;;;;;;;1999.90;999.90;;;;;;;13.74;65.02;99244.41;10025613;23;20035;-77
2022/08/13 04:36:07;;;;;;;1999.90;999.90;;;;;;;13.74;64.96;99247.88;10019374;23;20081;-76
2022/08/13 04:40:10;;;;;;;1999.90;999.90;;;;;;;13.74;64.89;99249.63;10005657;23;20023;-77
2022/08/13 04:44:31;;;;;;;1999.90;999.90;;;;;;;13.72;65.28;99249.66;10029415;23;20117;-77
2022/08/13 04:48:34;;;;;;;1999.90;999.90;;;;;;;13.75;64.80;99247.00;10025081;23;20059;-76
2022/08/13 04:52:39;;;;;;;1999.90;999.90;;;;;;;13.78;64.97;99252.16;10029849;23;20445;-77
2022/08/13 04:56:41;;;;;;;1999.90;999.90;;;;;;;13.81;64.74;99246.88;10004903;23;20022;-77
2022/08/13 05:00:44;;;;;;;1999.90;999.90;;;;;;;13.88;65.08;99247.63;10023639;23;20981;-76
2022/08/13 05:04:51;;;;;;;1999.90;999.90;;;;;;;13.92;65.10;99244.06;10028208;23;20113;-76
2022/08/13 05:08:55;;;;;;;1999.90;999.90;;;;;;;13.97;65.49;99247.41;10026201;23;20114;-76
2022/08/13 05:13:03;;;;;;;1999.90;999.90;;;;;;;14.10;65.08;99253.25;10029730;23;20025;-76
2022/08/13 05:17:07;;;;;;;1999.90;999.90;;;;;;;14.25;64.87;99252.94;10023143;23;20106;-77
2022/08/13 05:21:14;;;;;;;1999.90;999.90;;;;;;;14.35;64.30;99249.22;10025940;23;20022;-77
2022/08/13 05:25:20;;;;;;;1999.90;999.90;;;;;;;14.42;64.18;99245.59;10050503;23;20022;-77
2022/08/13 05:29:43;;;;;;;1999.90;999.90;;;;;;;14.58;63.88;99248.75;10027792;23;20026;-76
2022/08/13 05:34:06;;;;;;;1999.90;999.90;;;;;;;14.79;63.68;99243.03;10026158;23;20038;-76
2022/08/13 05:38:09;;;;;;;1999.90;999.90;;;;;;;15.09;63.63;99246.66;9978830;23;20029;-76
2022/08/13 05:42:21;;;;;;;1999.90;999.90;;;;;;;15.82;61.96;99248.25;10003214;23;20090;-77
2022/08/13 05:46:27;;;;;;;1999.90;999.90;;;;;;;16.98;58.57;99250.84;10028865;23;20532;-77
2022/08/13 05:50:31;;;;;;;1999.90;999.90;;;;;;;17.78;55.53;99260.38;10028963;23;20018;-76
2022/08/13 05:54:34;;;;;;;1999.90;999.90;;;;;;;18.38;53.65;99252.91;9980480;23;20034;-77
2022/08/13 05:58:56;;;;;;;1999.90;999.90;;;;;;;18.54;53.31;99254.03;10008490;23;20034;-77
2022/08/13 06:07:18;;;;;;;1999.90;999.90;;;;;;;19.38;50.99;99247.97;10045434;23;20134;-76
2022/08/13 06:11:20;;;;;;;1999.90;999.90;;;;;;;20.03;48.34;99256.59;10003196;23;20077;-77
2022/08/13 06:15:43;;;;;;;1999.90;999.90;;;;;;;20.84;44.52;99250.22;9997970;23;20031;-76
2022/08/13 06:20:05;;;;;;;1999.90;999.90;;;;;;;21.57;42.33;99241.28;10002090;23;20394;-76
2022/08/13 06:24:12;;;;;;;1999.90;999.90;;;;;;;22.18;40.88;99243.34;9980800;23;20304;-77
2022/08/13 06:28:16;;;;;;;1999.90;999.90;;;;;;;22.67;39.66;99243.28;10003106;23;20130;-77
2022/08/13 06:32:24;;;;;;;1999.90;999.90;;;;;;;23.11;38.50;99238.97;9998693;23;20030;-77
2022/08/13 06:36:46;;;;;;;1999.90;999.90;;;;;;;23.48;38.21;99244.75;10027236;23;20391;-75
2022/08/13 06:40:48;;;;;;;;;;;;;;;23.80;37.54;99240.19;10002566;23;20015;-77
2022/08/13 06:44:51;;;;;;;1999.90;999.90;;;;;;;24.09;36.78;99249.88;10003921;23;19953;-77
2022/08/13 06:48:57;;;;;;;1999.90;999.90;;;;;;;24.40;36.91;99243.50;10022633;23;20026;-76
2022/08/13 06:53:03;;;;;;;1999.90;999.90;;;;;;;24.77;36.29;99251.78;10027810;23;20030;-77
2022/08/13 06:57:25;;;;;;;1999.90;999.90;;;;;;;25.02;35.17;99240.44;9982463;23;20256;-77
2022/08/13 07:01:47;;;;;;;1999.90;999.90;;;;;;;25.26;34.96;99243.25;9996952;23;20038;-77
2022/08/13 07:06:16;;;;;;;;;;;;;;;25.52;34.42;99249.50;10002988;23;20767;-77
2022/08/13 07:10:21;;;;;;;1999.90;999.90;;;;;;;25.76;33.90;99249.66;10003171;23;20437;-77
2022/08/13 07:14:24;;;;;;;1999.90;999.90;;;;;;;25.93;33.89;99246.66;10002151;23;20122;-77
2022/08/13 07:18:26;;;;;;;;;;;;;;;26.19;33.68;99244.81;10023512;23;20058;-77
2022/08/13 07:22:29;;;;;;;1999.90;999.90;;;;;;;26.36;33.21;99259.63;10025629;23;20021;-76
2022/08/13 07:26:51;;;;;;;1999.90;999.90;;;;;;;26.59;32.95;99247.34;10003038;23;20022;-75
2022/08/13 07:30:56;;;;;;;1999.90;999.90;;;;;;;26.81;32.58;99247.47;10018971;23;20117;-76
2022/08/13 07:34:58;;;;;;;1999.90;999.90;;;;;;;27.02;32.22;99250.38;10000215;23;20027;-76
2022/08/13 07:39:06;;;;;;;1999.90;999.90;;;;;;;27.18;31.96;99250.94;10025287;23;20035;-76
2022/08/13 07:43:11;;;;;;;1999.90;999.90;;;;;;;27.39;31.72;99259.13;10041622;23;20065;-77
2022/08/13 07:47:21;;;;;;;1999.90;999.90;;;;;;;27.53;31.33;99255.44;10018438;23;20037;-76
2022/08/13 07:51:26;;;;;;;1999.90;999.90;;;;;;;27.74;30.93;99256.47;10024734;23;20359;-76
2022/08/13 07:55:40;;;;;;;1999.90;999.90;;;;;;;27.90;30.95;99242.78;10003434;23;20034;-76
2022/08/13 08:00:05;;;;;;;1999.90;999.90;;;;;;;28.10;30.75;99254.56;10024229;23;20030;-77
2022/08/13 08:04:20;;;;;;;1999.90;999.90;;;;;;;28.22;30.42;99259.81;10024812;23;20552;-76
2022/08/13 08:08:33;;;;;;;1999.90;999.90;;;;;;;28.21;29.78;99258.09;10026202;23;20423;-76
2022/08/13 08:12:37;;;;;;;1999.90;999.90;;;;;;;28.25;30.02;99256.91;10026697;23;20535;-77
2022/08/13 08:16:54;;;;;;;1999.90;999.90;;;;;;;28.39;30.19;99250.47;10024708;23;20026;-73
2022/08/13 08:21:07;;;;;;;1999.90;999.90;;;;;;;28.54;29.75;99251.03;10043423;23;20026;-77
2022/08/13 08:25:28;;;;;;;1999.90;999.90;;;;;;;28.72;29.02;99243.34;10028829;23;20065;-76
2022/08/13 08:29:44;;;;;;;1999.90;999.90;;;;;;;28.88;28.96;99242.00;10027899;23;20082;-76
2022/08/13 08:34:00;;;;;;;1999.90;999.90;;;;;;;29.03;29.31;99244.41;10027522;23;20042;-76
2022/08/13 08:42:35;;;;;;;1999.90;999.90;;;;;;;29.31;28.59;99240.28;10002322;23;20462;-76
2022/08/13 08:46:38;;;;;;;1999.90;999.90;;;;;;;29.44;28.32;99238.25;9999054;23;20027;-76
2022/08/13 08:50:49;;;;;;;1999.90;999.90;;;;;;;29.55;28.40;99248.94;10026890;23;20081;-76
2022/08/13 08:54:51;;;;;;;1999.90;999.90;;;;;;;29.61;28.07;99240.38;10042917;23;20054;-76
2022/08/13 08:59:04;;;;;;;1999.90;999.90;;;;;;;29.74;27.71;99234.81;10002857;23;20038;-77
2022/08/13 09:03:07;;;;;;;1999.90;999.90;;;;;;;29.79;27.55;99240.63;10004131;23;20049;-76
2022/08/13 09:07:10;;;;;;;1999.90;999.90;;;;;;;29.81;27.00;99224.44;10018641;23;20027;-76
2022/08/13 09:11:14;;;;;;;1999.90;999.90;;;;;;;29.90;27.54;99221.81;10028308;23;20383;-77
2022/08/13 09:15:23;;;;;;;;;;;;;;;30.06;26.43;99234.75;9978442;23;20023;-76
2022/08/13 09:19:27;;;;;;;1999.90;999.90;;;;;;;30.01;26.61;99236.94;10002489;23;19984;-75
2022/08/13 09:23:48;;;;;;;1999.90;999.90;;;;;;;29.98;26.39;99219.31;10027485;23;20014;-76
2022/08/13 09:28:10;;;;;;;1999.90;999.90;;;;;;;30.06;26.58;99227.56;10001804;23;20129;-75
2022/08/13 09:32:22;;;;;;;1999.90;999.90;;;;;;;30.05;25.67;99217.81;9998744;23;20528;-74
2022/08/13 09:36:35;;;;;;;1999.90;999.90;;;;;;;30.14;25.98;99228.69;10043171;23;20520;-76
2022/08/13 09:41:07;;;;;;;1999.90;999.90;;;;;;;30.20;26.11;99222.81;10002077;23;20026;-76
2022/08/13 09:45:20;;;;;;;1999.90;999.90;;;;;;;30.28;25.88;99226.50;9998362;23;20026;-77
2022/08/13 09:49:23;;;;;;;1999.90;999.90;;;;;;;30.33;26.27;99216.22;10026063;23;20031;-77
2022/08/13 09:53:47;;;;;;;1999.90;999.90;;;;;;;30.41;26.02;99214.72;10027867;23;20031;-77
2022/08/13 09:58:00;;;;;;;1999.90;999.90;;;;;;;30.53;25.78;99210.94;10019767;23;20026;-77
2022/08/13 10:02:09;;;;;;;1999.90;999.90;;;;;;;30.66;25.84;99217.75;9998919;23;20026;-77
2022/08/13 10:06:18;;;;;;;1999.90;999.90;;;;;;;30.75;25.83;99215.22;10044469;23;20556;-76
2022/08/13 10:10:22;;;;;;;1999.90;999.90;;;;;;;30.74;25.93;99200.97;10028033;23;20037;-77
2022/08/13 10:14:34;;;;;;;1999.90;999.90;;;;;;;30.77;25.25;99192.66;10026622;23;20022;-76
2022/08/13 10:18:37;;;;;;;1999.90;999.90;;;;;;;30.82;24.81;99193.06;9997779;23;20089;-77
2022/08/13 10:22:39;;;;;;;1999.90;999.90;;;;;;;30.90;24.66;99187.88;10001097;23;20033;-77
2022/08/13 10:26:40;;;;;;;1999.90;999.90;;;;;;;30.87;24.50;99188.13;10026973;23;20110;-77
2022/08/13 10:30:42;;;;;;;1999.90;999.90;;;;;;;31.11;23.61;99186.88;10036176;23;20799;-77
2022/08/13 10:35:01;;;;;;;1999.90;999.90;;;;;;;31.24;23.96;99182.09;10000466;23;20054;-76
2022/08/13 10:39:05;;;;;;;1999.90;999.90;;;;;;;31.38;23.92;99170.91;10047714;23;20046;-76
2022/08/13 10:43:14;;;;;;;1999.90;999.90;;;;;;;31.53;23.75;99164.09;10021980;23;20097;-76
2022/08/13 10:47:24;;;;;;;1999.90;999.90;;;;;;;31.70;22.62;99175.91;10020793;23;20042;-77
2022/08/13 10:51:46;;;;;;;1999.90;999.90;;;;;;;31.74;22.65;99161.22;10020891;23;20311;-77
2022/08/13 10:56:05;;;;;;;1999.90;999.90;;;;;;;31.88;22.75;99153.69;9999299;23;20026;-76
2022/08/13 11:00:12;;;;;;;1999.90;999.90;;;;;;;31.98;22.51;99166.09;10018095;23;20454;-76
2022/08/13 11:04:14;;;;;;;1999.90;999.90;;;;;;;31.93;22.66;99157.63;10020680;23;20027;-76
2022/08/13 11:08:16;;;;;;;1999.90;999.90;;;;;;;31.80;22.29;99155.28;10021660;23;20023;-76
2022/08/13 11:12:33;;;;;;;1999.90;999.90;;;;;;;31.74;22.37;99144.25;10020009;23;20124;-76
2022/08/13 11:21:24;;;;;;;1999.90;999.90;;;;;;;32.08;22.48;99149.91;10036962;23;20023;-76
2022/08/13 11:25:38;;;;;;;1999.90;999.90;;;;;;;32.09;22.61;99138.16;10020899;23;20501;-76
2022/08/13 11:30:00;;;;;;;1999.90;999.90;;;;;;;32.30;22.50;99124.50;10022155;23;20037;-75
2022/08/13 11:34:02;;;;;;;1999.90;999.90;;;;;;;32.45;22.07;99139.09;10018860;23;20031;-75
2022/08/13 11:38:09;;;;;;;1999.90;999.90;;;;;;;32.47;22.14;99140.66;9997784;23;20026;-74
2022/08/13 11:42:10;;;;;;;1999.90;999.90;;;;;;;32.44;20.89;99145.47;10021213;23;20019;-75
2022/08/13 11:46:12;;;;;;;1999.90;999.90;;;;;;;32.46;20.99;99143.47;10030916;23;20034;-75
2022/08/13 11:50:14;;;;;;;1999.90;999.90;;;;;;;32.36;21.49;99119.38;10002971;23;20335;-75
2022/08/13 11:54:31;;;;;;;1999.90;999.90;;;;;;;32.53;20.92;99138.38;10003292;23;20074;-75
2022/08/13 11:58:34;;;;;;;1999.90;999.90;;;;;;;32.44;20.90;99129.34;10000878;23;20033;-74
2022/08/13 12:02:54;;;;;;;1999.90;999.90;;;;;;;32.45;21.13;99120.28;9994262;23;20038;-75
2022/08/13 12:06:56;;;;;;;1999.90;999.90;;;;;;;32.47;21.40;99103.00;10041275;23;20700;-75
2022/08/13 12:10:57;;;;;;;1999.90;999.90;;;;;;;32.57;21.49;99107.47;10000368;23;20074;-75
2022/08/13 12:14:59;;;;;;;1999.90;999.90;;;;;;;32.66;21.16;99098.47;10017218;23;20676;-75
2022/08/13 12:19:02;;;;;;;1999.90;999.90;;;;;;;32.79;20.83;99098.09;9999189;23;20023;-75
2022/08/13 12:23:24;;;;;;;1999.90;999.90;;;;;;;32.81;20.73;99096.13;9999692;23;20077;-75
2022/08/13 12:27:35;;;;;;;1999.90;999.90;;;;;;;32.82;20.15;99090.56;10042170;23;20084;-75
2022/08/13 12:31:46;;;;;;;1999.90;999.90;;;;;;;32.89;20.49;99091.66;10021980;23;20360;-75
2022/08/13 12:35:51;;;;;;;1999.90;999.90;;;;;;;32.78;20.49;99086.50;10025579;23;20027;-74
2022/08/13 12:39:58;;;;;;;1999.90;999.90;;;;;;;32.83;20.36;99100.34;10026569;23;20019;-74
2022/08/13 12:44:00;;;;;;;1999.90;999.90;;;;;;;32.81;19.27;99082.66;10040044;23;20033;-74
2022/08/13 12:48:21;;;;;;;1999.90;999.90;;;;;;;32.80;20.12;99084.50;9995694;23;20452;-74
2022/08/13 12:52:23;;;;;;;1999.90;999.90;;;;;;;32.97;20.64;99088.19;10026145;23;20018;-74
2022/08/13 12:56:33;;;;;;;1999.90;999.90;;;;;;;33.03;19.98;99071.41;10001463;23;20026;-74
2022/08/13 13:00:35;;;;;;;1999.90;999.90;;;;;;;32.94;19.92;99075.88;10021369;23;20109;-74
2022/08/13 13:04:41;;;;;;;1999.90;999.90;;;;;;;33.14;20.35;99068.47;10026303;23;20073;-74
2022/08/13 13:09:02;;;;;;;1999.90;999.90;;;;;;;33.27;20.41;99068.03;10001041;23;20085;-75
2022/08/13 13:13:26;;;;;;;1999.90;999.90;;;;;;;33.36;20.32;99056.34;10025378;23;20023;-74
2022/08/13 13:17:48;;;;;;;1999.90;999.90;;;;;;;33.34;20.07;99063.72;10004325;23;20031;-75
2022/08/13 13:22:10;;;;;;;1999.90;999.90;;;;;;;33.34;20.64;99059.19;10000327;23;20243;-76
2022/08/13 13:26:11;;;;;;;1999.90;999.90;;;;;;;33.20;20.49;99043.59;10025852;23;20026;-76
2022/08/13 13:30:13;;;;;;;1999.90;999.90;;;;;;;33.34;20.41;99044.88;10019302;23;20044;-75
2022/08/13 13:34:17;;;;;;;1999.90;999.90;;;;;;;33.55;19.96;99049.88;9975554;23;20026;-75
2022/08/13 13:38:26;;;;;;;1999.90;999.90;;;;;;;33.49;19.55;99051.34;10000124;23;20031;-75
2022/08/13 13:42:28;;;;;;;1999.90;999.90;;;;;;;33.48;19.10;99038.91;10000120;23;20090;-75
2022/08/13 13:46:40;;;;;;;1999.90;999.90;;;;;;;33.44;19.09;99037.53;10020757;23;20367;-75
2022/08/13 13:50:41;;;;;;;1999.90;999.90;;;;;;;33.37;19.61;99038.34;10000331;23;20022;-75
2022/08/13 13:54:43;;;;;;;1999.90;999.90;;;;;;;33.37;19.80;99025.72;9999824;23;20093;-75
2022/08/13 13:58:57;;;;;;;1999.90;999.90;;;;;;;33.43;19.17;99017.00;9978520;23;20019;-75
2022/08/13 14:03:03;;;;;;;1999.90;999.90;;;;;;;33.41;19.15;99016.34;10025307;23;20049;-75
2022/08/13 14:07:08;;;;;;;1999.90;999.90;;;;;;;33.35;19.74;99011.56;10025737;23;20097;-75
2022/08/13 14:11:30;;;;;;;1999.90;999.90;;;;;;;33.41;19.11;99019.03;10024278;23;20870;-75
2022/08/13 14:15:50;;;;;;;1999.90;999.90;;;;;;;33.51;19.00;99019.72;10013613;23;20089;-75
2022/08/13 14:19:54;;;;;;;1999.90;999.90;;;;;;;33.48;19.16;99003.91;10026263;23;20133;-75
2022/08/13 14:23:57;;;;;;;1999.90;999.90;;;;;;;33.54;19.16;98995.16;10001165;23;20027;-75
2022/08/13 14:28:00;;;;;;;1999.90;999.90;;;;;;;33.65;19.50;98991.34;9991421;23;20033;-75
2022/08/13 14:32:02;;;;;;;1999.90;999.90;;;;;;;33.72;18.77;98999.59;9991567;23;20115;-75
2022/08/13 14:36:05;;;;;;;1999.90;999.90;;;;;;;33.68;18.47;98988.31;10011545;23;20023;-75
2022/08/13 14:40:09;;;;;;;1999.90;999.90;;;;;;;33.56;19.31;98989.63;10024854;23;20962;-75
2022/08/13 14:44:12;;;;;;;1999.90;999.90;;;;;;;33.61;19.14;98988.13;10023867;23;20098;-74
2022/08/13 14:48:34;;;;;;;1999.90;999.90;;;;;;;33.53;19.47;98977.31;10023324;23;20037;-75
2022/08/13 14:52:38;;;;;;;1999.90;999.90;;;;;;;33.56;19.59;98977.00;10024540;23;20031;-75
2022/08/13 14:56:59;;;;;;;1999.90;999.90;;;;;;;33.62;20.02;98973.66;10024212;23;20027;-75
2022/08/13 15:01:21;;;;;;;1999.90;999.90;;;;;;;33.62;19.23;98967.44;10020582;23;20027;-75
2022/08/13 15:05:26;;;;;;;1999.90;999.90;;;;;;;33.62;19.43;98965.59;10025551;23;20031;-74
2022/08/13 15:09:49;;;;;;;1999.90;999.90;;;;;;;33.64;19.44;98970.81;10024049;23;20110;-74
2022/08/13 15:13:51;;;;;;;1999.90;999.90;;;;;;;33.65;19.90;98951.78;10020470;23;20022;-75
2022/08/13 15:17:59;;;;;;;1999.90;999.90;;;;;;;33.68;19.83;98945.22;10018820;23;20027;-75
2022/08/13 15:22:11;;;;;;;1999.90;999.90;;;;;;;33.67;19.49;98950.78;10024213;23;20015;-74
2022/08/13 15:26:25;;;;;;;1999.90;999.90;;;;;;;33.70;20.10;98940.50;10024768;23;20019;-75
2022/08/13 15:30:32;;;;;;;1999.90;999.90;;;;;;;33.84;20.35;98930.94;10022673;23;20790;-74
2022/08/13 15:34:33;;;;;;;1999.90;999.90;;;;;;;33.85;19.48;98938.91;10027930;23;20102;-74
2022/08/13 15:38:35;;;;;;;1999.90;999.90;;;;;;;33.84;20.13;98925.56;10003178;23;20022;-75
2022/08/13 15:42:38;;;;;;;1999.90;999.90;;;;;;;33.81;19.83;98913.28;10001285;23;20398;-75
2022/08/13 15:46:39;;;;;;;1999.90;999.90;;;;;;;33.82;19.53;98914.13;10002850;23;20514;-75
2022/08/13 15:50:43;;;;;;;1999.90;999.90;;;;;;;33.85;19.29;98909.25;10001956;23;20069;-75
2022/08/13 15:54:46;;;;;;;1999.90;999.90;;;;;;;33.91;19.25;98905.88;10019042;23;20419;-75
2022/08/13 15:58:51;;;;;;;1999.90;999.90;;;;;;;34.03;19.70;98906.41;10026595;23;20023;-77
2022/08/13 16:02:59;;;;;;;1999.90;999.90;;;;;;;33.95;19.63;98911.81;10022860;23;20058;-77
2022/08/13 16:07:05;;;;;;;1999.90;999.90;;;;;;;33.93;19.94;98908.41;10003865;23;20035;-76
2022/08/13 16:11:12;;;;;;;1999.90;999.90;;;;;;;33.91;19.91;98905.88;10001058;23;20026;-75
2022/08/13 16:15:35;;;;;;;1999.90;999.90;;;;;;;33.91;20.09;98899.66;9996003;23;20027;-77
2022/08/13 16:19:51;;;;;;;1999.90;999.90;;;;;;;33.81;20.00;98896.28;10000796;23;20082;-75
2022/08/13 16:23:56;;;;;;;1999.90;999.90;;;;;;;33.55;20.22;98888.28;10026293;23;20023;-76
2022/08/13 16:28:05;;;;;;;1999.90;999.90;;;;;;;33.19;21.13;98880.44;10017787;23;20287;-76
2022/08/13 16:32:10;;;;;;;1999.90;999.90;;;;;;;32.69;20.80;98866.94;10019746;23;20131;-76
2022/08/13 16:36:19;;;;;;;1999.90;999.90;;;;;;;32.20;22.00;98860.38;10025789;23;20388;-76
2022/08/13 16:40:24;;;;;;;1999.90;999.90;;;;;;;31.71;22.04;98865.28;10040822;23;20036;-75
2022/08/13 16:44:41;;;;;;;1999.90;999.90;;;;;;;31.34;22.50;98860.06;9999915;23;20023;-74
2022/08/13 16:48:44;;;;;;;1999.90;999.90;;;;;;;31.01;22.59;98861.50;10039347;23;20103;-74
2022/08/13 16:52:54;;;;;;;1999.90;999.90;;;;;;;30.79;23.04;98862.75;10022229;23;20045;-76
2022/08/13 16:56:56;;;;;;;1999.90;999.90;;;;;;;30.59;23.56;98854.75;10005075;23;20430;-77
2022/08/13 17:00:57;;;;;;;1999.90;999.90;;;;;;;30.37;23.36;98852.44;10000107;23;20039;-76
2022/08/13 17:09:27;;;;;;;1999.90;999.90;;;;;;;30.00;23.97;98849.66;10005765;23;20058;-76
2022/08/13 17:13:39;;;;;;;1999.90;999.90;;;;;;;29.85;23.79;98848.41;10007142;23;20478;-76
2022/08/13 17:17:41;;;;;;;1999.90;999.90;;;;;;;29.71;24.59;98853.19;9999206;23;20027;-76
2022/08/13 17:21:44;;;;;;;1999.90;999.90;;;;;;;29.61;24.77;98846.97;10003563;23;20030;-76
2022/08/13 17:25:55;;;;;;;1999.90;999.90;;;;;;;29.44;25.42;98851.19;10004318;23;20030;-76
2022/08/13 17:29:56;;;;;;;1999.90;999.90;;;;;;;29.31;24.97;98839.91;10029840;23;20051;-76
2022/08/13 17:34:09;;;;;;;1999.90;999.90;;;;;;;29.21;24.29;98846.19;10027781;23;20031;-76
2022/08/13 17:38:11;;;;;;;1999.90;999.90;;;;;;;29.14;24.85;98845.91;10029502;23;20023;-77
2022/08/13 17:42:13;;;;;;;1999.90;999.90;;;;;;;29.07;24.86;98847.44;10004320;23;20027;-76
2022/08/13 17:46:35;;;;;;;1999.90;999.90;;;;;;;28.98;25.51;98845.59;10026019;23;20103;-77
2022/08/13 17:50:39;;;;;;;1999.90;999.90;;;;;;;28.85;25.35;98853.81;10029732;23;20235;-77
2022/08/13 17:54:52;;;;;;;1999.90;999.90;;;;;;;28.76;25.00;98849.28;10029888;23;20065;-76
2022/08/13 17:58:56;;;;;;;1999.90;999.90;;;;;;;28.59;25.83;98846.28;10029219;23;20051;-76
2022/08/13 18:02:58;;;;;;;1999.90;999.90;;;;;;;28.44;26.11;98849.44;10022515;23;20784;-77
2022/08/13 18:07:00;;;;;;;1999.90;999.90;;;;;;;28.32;26.05;98850.47;10028327;23;20026;-77
2022/08/13 18:11:04;;;;;;;1999.90;999.90;;;;;;;28.20;26.25;98853.22;10027430;23;20031;-76
2022/08/13 18:15:10;;;;;;;1999.90;999.90;;;;;;;28.10;26.45;98854.09;10039652;23;20114;-75
2022/08/13 18:19:14;;;;;;;1999.90;999.90;;;;;;;27.98;26.18;98861.31;9977192;23;20762;-76
2022/08/13 18:23:16;;;;;;;1999.90;999.90;;;;;;;27.84;27.08;98856.31;10002372;23;20026;-77
2022/08/13 18:27:19;;;;;;;1999.90;999.90;;;;;;;27.72;28.42;98858.19;10028233;23;20027;-76
2022/08/13 18:31:41;;;;;;;1999.90;999.90;;;;;;;27.50;30.99;98866.25;9996660;23;20034;-76
2022/08/13 18:35:43;;;;;;;1999.90;999.90;;;;;;;27.27;31.21;98858.28;10011960;23;20030;-76
2022/08/13 18:39:45;;;;;;;1999.90;999.90;;;;;;;27.00;32.13;98864.06;10025314;23;20019;-76